createdAt,value
2019-03-30T00:01:24.028Z,6.79
2019-03-30T00:03:52.684Z,6.72
2019-03-30T00:06:21.183Z,6.72
2019-03-30T00:08:49.834Z,6.68
2019-03-30T00:11:18.328Z,6.67
2019-03-30T00:13:46.829Z,6.54
2019-03-30T00:16:15.337Z,6.47
2019-03-30T00:18:43.824Z,6.50
2019-03-30T00:21:12.348Z,6.55
2019-03-30T00:23:40.895Z,6.60
2019-03-30T00:26:09.397Z,6.60
2019-03-30T00:28:38.074Z,6.44
2019-03-30T00:31:06.634Z,6.40
2019-03-30T00:33:35.126Z,6.35
2019-03-30T00:36:03.608Z,6.39
2019-03-30T00:38:32.297Z,6.38
2019-03-30T00:41:00.781Z,6.42
2019-03-30T00:43:29.271Z,6.34
2019-03-30T00:45:57.856Z,6.36
2019-03-30T00:48:26.340Z,6.28
2019-03-30T00:50:54.818Z,6.18
2019-03-30T00:53:23.348Z,6.20
2019-03-30T00:55:51.824Z,6.25
2019-03-30T00:58:20.350Z,6.17
2019-03-30T01:00:48.958Z,6.03
2019-03-30T01:03:17.415Z,5.95
2019-03-30T01:05:46.046Z,5.96
2019-03-30T01:08:14.545Z,5.96
2019-03-30T01:10:43.059Z,5.96
2019-03-30T01:13:11.932Z,5.95
2019-03-30T01:15:40.516Z,5.83
2019-03-30T01:18:08.996Z,5.65
2019-03-30T01:20:37.557Z,5.65
2019-03-30T01:23:06.052Z,5.71
2019-03-30T01:25:34.555Z,5.75
2019-03-30T01:28:03.050Z,5.59
2019-03-30T01:30:31.673Z,5.59
2019-03-30T01:33:00.192Z,5.61
2019-03-30T01:35:28.845Z,5.63
2019-03-30T01:37:57.435Z,5.68
2019-03-30T01:40:25.940Z,5.68
2019-03-30T01:42:54.413Z,5.65
2019-03-30T01:45:22.979Z,5.52
2019-03-30T01:47:51.504Z,5.35
2019-03-30T01:50:20.009Z,5.32
2019-03-30T01:52:48.501Z,5.30
2019-03-30T01:55:17.038Z,5.32
2019-03-30T01:57:45.531Z,5.42
2019-03-30T02:00:14.424Z,5.49
2019-03-30T02:02:42.941Z,5.52
2019-03-30T02:05:11.665Z,5.52
2019-03-30T02:07:40.152Z,5.45
2019-03-30T02:10:09.668Z,5.33
2019-03-30T02:12:38.439Z,5.32
2019-03-30T02:15:07.944Z,5.36
2019-03-30T02:17:36.416Z,5.29
2019-03-30T02:20:10.564Z,5.24
2019-03-30T02:22:39.062Z,5.21
2019-03-30T02:25:08.324Z,5.16
2019-03-30T02:27:36.838Z,5.14
2019-03-30T02:30:07.672Z,5.12
2019-03-30T02:32:36.136Z,5.16
2019-03-30T02:35:06.967Z,5.25
2019-03-30T02:37:35.466Z,5.15
2019-03-30T02:40:06.167Z,5.10
2019-03-30T02:42:34.686Z,5.14
2019-03-30T02:45:03.169Z,5.13
2019-03-30T02:47:31.671Z,5.15
2019-03-30T02:50:00.623Z,5.15
2019-03-30T02:52:29.130Z,5.03
2019-03-30T02:54:57.614Z,4.90
2019-03-30T02:57:26.093Z,4.89
2019-03-30T02:59:54.566Z,4.89
2019-03-30T03:02:23.309Z,4.84
2019-03-30T03:04:51.850Z,4.83
2019-03-30T03:07:20.321Z,4.75
2019-03-30T03:09:48.827Z,4.79
2019-03-30T03:12:17.334Z,4.82
2019-03-30T03:14:45.808Z,4.85
2019-03-30T03:17:14.287Z,4.84
2019-03-30T03:19:43.155Z,4.79
2019-03-30T03:22:11.613Z,4.79
2019-03-30T03:24:40.112Z,4.84
2019-03-30T03:27:08.601Z,4.80
2019-03-30T03:29:37.079Z,4.81
2019-03-30T03:32:05.632Z,4.85
2019-03-30T03:34:34.152Z,4.77
2019-03-30T03:37:02.629Z,4.74
2019-03-30T03:39:31.104Z,4.68
2019-03-30T03:42:04.588Z,4.58
2019-03-30T03:44:33.058Z,4.54
2019-03-30T03:47:01.547Z,4.44
2019-03-30T03:49:30.033Z,4.40
2019-03-30T03:51:59.282Z,4.44
2019-03-30T03:54:28.990Z,4.34
2019-03-30T03:56:58.838Z,4.45
2019-03-30T03:59:28.410Z,4.47
2019-03-30T04:01:59.400Z,4.48
2019-03-30T04:04:28.282Z,4.49
2019-03-30T04:06:59.760Z,4.41
2019-03-30T04:09:30.861Z,4.39
2019-03-30T04:12:00.101Z,4.26
2019-03-30T04:14:30.455Z,4.23
2019-03-30T04:16:59.022Z,4.29
2019-03-30T04:19:27.679Z,4.45
2019-03-30T04:21:56.163Z,4.56
2019-03-30T04:24:24.656Z,4.72
2019-03-30T04:26:53.161Z,4.82
2019-03-30T04:29:21.645Z,4.93
2019-03-30T04:31:50.339Z,4.97
2019-03-30T04:34:18.773Z,4.95
2019-03-30T04:36:47.324Z,4.92
2019-03-30T04:39:15.781Z,4.94
2019-03-30T04:41:44.298Z,4.97
2019-03-30T04:44:12.785Z,4.96
2019-03-30T04:46:41.258Z,4.96
2019-03-30T04:49:09.742Z,4.99
2019-03-30T04:51:56.568Z,5.05
2019-03-30T04:54:13.824Z,5.15
2019-03-30T04:56:42.511Z,5.25
2019-03-30T04:59:10.997Z,5.31
2019-03-30T05:01:39.498Z,5.35
2019-03-30T05:04:07.996Z,5.34
2019-03-30T05:06:36.489Z,5.30
2019-03-30T05:09:06.274Z,5.18
2019-03-30T05:11:34.751Z,5.12
2019-03-30T05:14:03.259Z,5.08
2019-03-30T05:16:31.718Z,5.04
2019-03-30T05:19:00.188Z,5.06
2019-03-30T05:21:28.851Z,5.02
2019-03-30T05:23:57.364Z,4.96
2019-03-30T05:26:25.878Z,4.88
2019-03-30T05:28:54.377Z,4.81
2019-03-30T05:31:22.862Z,4.67
2019-03-30T05:33:51.361Z,4.50
2019-03-30T05:36:19.873Z,4.47
2019-03-30T05:38:48.528Z,4.48
2019-03-30T05:41:17.012Z,4.42
2019-03-30T05:43:45.505Z,4.36
2019-03-30T05:46:13.995Z,4.33
2019-03-30T05:48:42.489Z,4.25
2019-03-30T05:51:10.995Z,4.22
2019-03-30T05:53:39.502Z,4.21
2019-03-30T05:56:08.063Z,4.21
2019-03-30T05:58:36.549Z,4.27
2019-03-30T06:01:05.031Z,4.28
2019-03-30T06:03:33.526Z,4.27
2019-03-30T06:06:01.994Z,4.21
2019-03-30T06:08:30.479Z,4.19
2019-03-30T06:10:59.066Z,4.22
2019-03-30T06:13:27.526Z,4.27
2019-03-30T06:15:56.091Z,4.41
2019-03-30T06:18:24.561Z,4.57
2019-03-30T06:20:53.022Z,4.59
2019-03-30T06:23:21.601Z,4.52
2019-03-30T06:25:50.113Z,4.51
2019-03-30T06:28:19.178Z,4.46
2019-03-30T06:30:47.645Z,4.45
2019-03-30T06:33:16.113Z,4.52
2019-03-30T06:35:44.601Z,4.64
2019-03-30T06:38:13.059Z,4.64
2019-03-30T06:40:41.528Z,4.67
2019-03-30T06:43:10.086Z,4.67
2019-03-30T06:45:38.571Z,4.53
2019-03-30T06:48:07.020Z,4.42
2019-03-30T06:50:35.570Z,4.25
2019-03-30T06:53:04.062Z,4.17
2019-03-30T06:55:32.531Z,4.10
2019-03-30T06:58:01.031Z,4.09
2019-03-30T07:00:34.195Z,4.04
2019-03-30T07:03:05.012Z,3.99
2019-03-30T07:05:36.535Z,4.02
2019-03-30T07:08:05.282Z,4.06
2019-03-30T07:10:33.982Z,4.07
2019-03-30T07:13:04.011Z,4.02
2019-03-30T07:15:34.774Z,3.95
2019-03-30T07:18:04.915Z,3.88
2019-03-30T07:20:33.875Z,3.83
2019-03-30T07:23:11.881Z,3.90
2019-03-30T07:25:32.572Z,3.94
2019-03-30T07:28:01.042Z,3.99
2019-03-30T07:30:29.597Z,4.05
2019-03-30T07:32:58.081Z,4.11
2019-03-30T07:35:26.567Z,4.11
2019-03-30T07:37:55.175Z,4.13
2019-03-30T07:40:23.753Z,4.08
2019-03-30T07:42:52.345Z,4.05
2019-03-30T07:45:21.406Z,4.11
2019-03-30T07:47:49.908Z,4.15
2019-03-30T07:50:18.624Z,4.17
2019-03-30T07:52:47.114Z,4.18
2019-03-30T07:55:15.629Z,4.19
2019-03-30T07:57:44.171Z,4.27
2019-03-30T08:00:13.356Z,4.33
2019-03-30T08:02:41.839Z,4.43
2019-03-30T08:05:10.445Z,4.51
2019-03-30T08:07:38.910Z,4.59
2019-03-30T08:10:07.480Z,4.53
2019-03-30T08:12:36.039Z,4.51
2019-03-30T08:15:07.248Z,4.58
2019-03-30T08:17:35.770Z,5.05
2019-03-30T08:20:05.891Z,5.58
2019-03-30T08:22:34.393Z,6.08
2019-03-30T08:25:02.957Z,6.47
2019-03-30T08:27:31.451Z,7.03
2019-03-30T08:29:59.890Z,7.48
2019-03-30T08:32:28.388Z,7.86
2019-03-30T08:34:56.836Z,8.23
2019-03-30T08:37:25.299Z,8.61
2019-03-30T08:39:53.762Z,8.98
2019-03-30T08:42:22.307Z,9.40
2019-03-30T08:44:50.809Z,9.91
2019-03-30T08:47:19.297Z,10.22
2019-03-30T08:49:47.789Z,10.50
2019-03-30T08:52:16.261Z,10.87
2019-03-30T08:54:44.794Z,11.18
2019-03-30T08:57:13.438Z,11.38
2019-03-30T08:59:41.906Z,11.57
2019-03-30T09:02:10.385Z,11.70
2019-03-30T09:04:38.861Z,11.74
2019-03-30T09:07:07.371Z,12.00
2019-03-30T09:09:35.885Z,11.99
2019-03-30T09:12:04.439Z,12.08
2019-03-30T09:14:32.970Z,12.43
2019-03-30T09:17:01.468Z,12.66
2019-03-30T09:19:29.973Z,12.95
2019-03-30T09:21:58.447Z,13.06
2019-03-30T09:24:26.939Z,13.30
2019-03-30T09:26:55.430Z,13.42
2019-03-30T09:29:23.899Z,13.58
2019-03-30T09:31:52.394Z,13.72
2019-03-30T09:34:20.912Z,13.72
2019-03-30T09:36:49.601Z,13.64
2019-03-30T09:39:18.106Z,13.45
2019-03-30T09:41:46.592Z,13.33
2019-03-30T09:44:15.073Z,13.38
2019-03-30T09:46:43.536Z,13.55
2019-03-30T09:49:12.072Z,13.75
2019-03-30T09:51:40.552Z,13.86
2019-03-30T09:54:22.816Z,14.16
2019-03-30T09:56:39.262Z,14.30
2019-03-30T09:59:07.782Z,14.60
2019-03-30T10:01:36.636Z,14.91
2019-03-30T10:04:05.384Z,14.93
2019-03-30T10:06:34.796Z,15.03
2019-03-30T10:09:04.011Z,15.03
2019-03-30T10:11:32.499Z,14.98
2019-03-30T10:14:01.021Z,15.15
2019-03-30T10:16:29.560Z,15.22
2019-03-30T10:18:58.066Z,15.34
2019-03-30T10:21:26.707Z,15.50
2019-03-30T10:23:55.222Z,15.72
2019-03-30T10:26:23.731Z,15.70
2019-03-30T10:28:52.244Z,15.89
2019-03-30T10:31:20.952Z,16.00
2019-03-30T10:33:49.450Z,16.00
2019-03-30T10:36:17.912Z,16.08
2019-03-30T10:38:46.402Z,16.15
2019-03-30T10:41:14.901Z,16.08
2019-03-30T10:43:43.657Z,15.98
2019-03-30T10:46:12.120Z,16.23
2019-03-30T10:48:40.629Z,16.26
2019-03-30T10:51:09.156Z,16.45
2019-03-30T10:53:37.641Z,16.68
2019-03-30T10:56:06.162Z,16.82
2019-03-30T10:58:34.655Z,17.00
2019-03-30T11:01:03.161Z,17.15
2019-03-30T11:03:31.676Z,17.00
2019-03-30T11:06:00.152Z,17.02
2019-03-30T11:08:28.666Z,17.11
2019-03-30T11:10:57.345Z,17.07
2019-03-30T11:13:25.842Z,16.94
2019-03-30T11:15:54.352Z,17.02
2019-03-30T11:18:22.851Z,17.11
2019-03-30T11:20:51.692Z,17.21
2019-03-30T11:23:20.237Z,17.03
2019-03-30T11:25:48.736Z,17.10
2019-03-30T11:28:17.228Z,17.09
2019-03-30T11:30:45.828Z,17.04
2019-03-30T11:33:14.342Z,17.07
2019-03-30T11:35:43.027Z,17.06
2019-03-30T11:38:11.548Z,17.09
2019-03-30T11:40:40.472Z,17.16
2019-03-30T11:43:08.963Z,17.47
2019-03-30T11:45:37.563Z,17.37
2019-03-30T11:48:06.062Z,17.39
2019-03-30T11:50:34.537Z,17.50
2019-03-30T11:53:03.057Z,17.57
2019-03-30T11:55:31.565Z,17.69
2019-03-30T11:58:00.173Z,17.67
2019-03-30T12:00:28.749Z,17.71
2019-03-30T12:02:57.241Z,17.83
2019-03-30T12:05:25.752Z,18.04
2019-03-30T12:07:54.277Z,18.06
2019-03-30T12:10:22.774Z,18.03
2019-03-30T12:12:51.308Z,17.89
2019-03-30T12:15:19.837Z,17.93
2019-03-30T12:17:48.519Z,18.01
2019-03-30T12:20:17.168Z,18.11
2019-03-30T12:22:45.739Z,18.34
2019-03-30T12:25:14.234Z,18.35
2019-03-30T12:27:42.763Z,18.43
2019-03-30T12:30:11.703Z,18.56
2019-03-30T12:32:40.205Z,18.49
2019-03-30T12:35:08.970Z,18.36
2019-03-30T12:37:37.494Z,18.35
2019-03-30T12:40:07.443Z,18.52
2019-03-30T12:42:36.028Z,18.75
2019-03-30T12:45:07.070Z,18.86
2019-03-30T12:47:35.628Z,18.81
2019-03-30T12:50:06.188Z,18.72
2019-03-30T12:52:34.681Z,18.78
2019-03-30T12:55:03.441Z,18.94
2019-03-30T12:57:31.947Z,19.11
2019-03-30T13:00:00.448Z,19.19
2019-03-30T13:02:28.940Z,19.13
2019-03-30T13:04:57.462Z,19.27
2019-03-30T13:07:25.962Z,19.19
2019-03-30T13:09:54.482Z,19.20
2019-03-30T13:12:22.990Z,19.30
2019-03-30T13:14:51.475Z,19.42
2019-03-30T13:17:19.998Z,19.47
2019-03-30T13:19:48.853Z,19.44
2019-03-30T13:22:17.349Z,19.48
2019-03-30T13:24:45.870Z,19.44
2019-03-30T13:27:14.349Z,19.24
2019-03-30T13:29:42.853Z,19.38
2019-03-30T13:32:11.438Z,19.53
2019-03-30T13:34:39.929Z,19.70
2019-03-30T13:37:16.541Z,19.68
2019-03-30T13:39:45.659Z,19.44
2019-03-30T13:42:14.210Z,19.51
2019-03-30T13:44:42.744Z,19.59
2019-03-30T13:47:11.257Z,19.62
2019-03-30T13:49:39.866Z,19.53
2019-03-30T13:52:08.455Z,19.51
2019-03-30T13:54:38.782Z,19.50
2019-03-30T13:57:07.190Z,19.63
2019-03-30T13:59:35.703Z,19.72
2019-03-30T14:02:04.286Z,19.80
2019-03-30T14:04:32.787Z,19.70
2019-03-30T14:07:01.307Z,19.59
2019-03-30T14:09:29.826Z,19.53
2019-03-30T14:11:58.329Z,19.55
2019-03-30T14:14:26.853Z,19.52
2019-03-30T14:16:55.349Z,19.61
2019-03-30T14:19:23.847Z,19.70
2019-03-30T14:21:52.363Z,19.59
2019-03-30T14:24:20.883Z,19.59
2019-03-30T14:26:49.378Z,19.71
2019-03-30T14:29:17.911Z,19.74
2019-03-30T14:31:46.423Z,19.86
2019-03-30T14:34:14.909Z,19.83
2019-03-30T14:36:43.425Z,19.68
2019-03-30T14:39:11.924Z,19.54
2019-03-30T14:41:40.422Z,19.41
2019-03-30T14:44:08.955Z,19.40
2019-03-30T14:46:37.479Z,19.33
2019-03-30T14:49:06.381Z,19.35
2019-03-30T14:51:34.910Z,19.29
2019-03-30T14:54:03.435Z,19.39
2019-03-30T14:56:44.892Z,19.38
2019-03-30T14:59:09.973Z,19.29
2019-03-30T15:01:32.477Z,19.17
2019-03-30T15:04:00.977Z,19.26
2019-03-30T15:06:29.561Z,19.10
2019-03-30T15:08:58.080Z,19.09
2019-03-30T15:11:26.585Z,19.03
2019-03-30T15:13:55.105Z,18.95
2019-03-30T15:16:23.694Z,19.05
2019-03-30T15:18:52.188Z,19.04
2019-03-30T15:21:20.690Z,19.16
2019-03-30T15:23:49.190Z,19.23
2019-03-30T15:26:17.693Z,19.30
2019-03-30T15:28:46.204Z,19.23
2019-03-30T15:31:14.712Z,19.27
2019-03-30T15:33:43.212Z,19.19
2019-03-30T15:36:11.690Z,18.99
2019-03-30T15:38:40.233Z,19.00
2019-03-30T15:41:08.750Z,19.03
2019-03-30T15:43:38.782Z,19.05
2019-03-30T15:46:07.623Z,18.90
2019-03-30T15:48:36.103Z,18.58
2019-03-30T15:51:04.674Z,18.24
2019-03-30T15:53:33.251Z,17.87
2019-03-30T15:56:01.741Z,17.62
2019-03-30T15:58:30.231Z,17.53
2019-03-30T16:00:58.807Z,17.41
2019-03-30T16:03:27.364Z,17.35
2019-03-30T16:05:55.885Z,17.31
2019-03-30T16:08:24.742Z,17.23
2019-03-30T16:10:53.217Z,17.20
2019-03-30T16:13:21.735Z,17.20
2019-03-30T16:15:50.327Z,17.25
2019-03-30T16:18:18.802Z,17.18
2019-03-30T16:20:47.293Z,17.06
2019-03-30T16:23:15.787Z,17.02
2019-03-30T16:25:44.348Z,16.86
2019-03-30T16:28:12.912Z,16.76
2019-03-30T16:30:41.507Z,16.70
2019-03-30T16:33:10.010Z,16.60
2019-03-30T16:35:38.497Z,16.59
2019-03-30T16:38:07.085Z,16.61
2019-03-30T16:40:35.593Z,16.45
2019-03-30T16:43:04.386Z,16.38
2019-03-30T16:45:32.890Z,16.24
2019-03-30T16:48:01.387Z,16.23
2019-03-30T16:50:29.888Z,16.11
2019-03-30T16:52:58.365Z,16.05
2019-03-30T16:55:26.844Z,16.02
2019-03-30T16:57:55.356Z,15.98
2019-03-30T17:00:23.887Z,15.86
2019-03-30T17:02:52.402Z,15.83
2019-03-30T17:05:20.917Z,15.75
2019-03-30T17:07:49.399Z,15.63
2019-03-30T17:10:17.986Z,15.47
2019-03-30T17:12:46.483Z,15.39
2019-03-30T17:15:15.112Z,15.24
2019-03-30T17:17:43.632Z,15.07
2019-03-30T17:20:13.245Z,14.91
2019-03-30T17:22:41.746Z,14.70
2019-03-30T17:25:10.422Z,14.59
2019-03-30T17:27:38.952Z,14.39
2019-03-30T17:30:09.155Z,14.17
2019-03-30T17:32:37.741Z,14.07
2019-03-30T17:35:07.295Z,14.01
2019-03-30T17:37:35.788Z,14.01
2019-03-30T17:40:08.718Z,14.03
2019-03-30T17:42:38.963Z,14.01
2019-03-30T17:45:09.863Z,13.96
2019-03-30T17:47:38.399Z,13.87
2019-03-30T17:50:08.141Z,13.75
2019-03-30T17:52:36.652Z,13.67
2019-03-30T17:55:06.076Z,13.64
2019-03-30T17:57:34.585Z,13.49
2019-03-30T18:00:07.748Z,13.42
2019-03-30T18:02:34.340Z,13.41
2019-03-30T18:05:02.835Z,13.41
2019-03-30T18:07:31.350Z,13.41
2019-03-30T18:10:03.295Z,13.31
2019-03-30T18:12:30.081Z,13.23
2019-03-30T18:14:58.598Z,13.09
2019-03-30T18:17:27.108Z,13.03
2019-03-30T18:19:55.626Z,12.94
2019-03-30T18:22:24.121Z,12.92
2019-03-30T18:24:52.624Z,12.93
2019-03-30T18:27:21.153Z,12.93
2019-03-30T18:29:49.663Z,12.94
2019-03-30T18:32:18.691Z,12.89
2019-03-30T18:34:47.435Z,12.88
2019-03-30T18:37:17.368Z,12.88
2019-03-30T18:39:46.524Z,12.91
2019-03-30T18:42:15.034Z,12.93
2019-03-30T18:44:44.613Z,12.87
2019-03-30T18:47:13.152Z,12.79
2019-03-30T18:49:42.762Z,12.72
2019-03-30T18:52:11.517Z,12.67
2019-03-30T18:54:41.950Z,12.58
2019-03-30T18:57:10.525Z,12.51
2019-03-30T18:59:39.103Z,12.40
2019-03-30T19:02:07.695Z,12.31
2019-03-30T19:04:36.195Z,12.20
2019-03-30T19:07:04.721Z,12.11
2019-03-30T19:09:33.230Z,12.08
2019-03-30T19:12:01.893Z,12.08
2019-03-30T19:14:30.411Z,12.01
2019-03-30T19:16:58.882Z,11.95
2019-03-30T19:19:27.383Z,11.84
2019-03-30T19:21:55.908Z,11.84
2019-03-30T19:24:24.400Z,11.86
2019-03-30T19:26:52.897Z,11.88
2019-03-30T19:29:21.410Z,11.95
2019-03-30T19:31:49.905Z,12.00
2019-03-30T19:34:18.419Z,12.03
2019-03-30T19:36:47.002Z,12.05
2019-03-30T19:39:15.517Z,12.00
2019-03-30T19:41:44.054Z,11.96
2019-03-30T19:44:12.557Z,11.95
2019-03-30T19:46:41.083Z,11.90
2019-03-30T19:49:09.595Z,11.89
2019-03-30T19:51:38.114Z,11.89
2019-03-30T19:54:06.610Z,11.85
2019-03-30T19:56:35.119Z,11.85
2019-03-30T19:59:10.582Z,11.79
2019-03-30T20:01:33.958Z,11.77
2019-03-30T20:04:02.465Z,11.73
2019-03-30T20:06:30.956Z,11.61
2019-03-30T20:08:59.457Z,11.63
2019-03-30T20:11:28.046Z,11.61
2019-03-30T20:13:56.524Z,11.58
2019-03-30T20:16:25.050Z,11.53
2019-03-30T20:19:11.036Z,11.52
2019-03-30T20:21:23.760Z,11.42
2019-03-30T20:23:52.255Z,11.43
2019-03-30T20:26:20.768Z,11.43
2019-03-30T20:28:49.303Z,11.45
2019-03-30T20:31:17.808Z,11.45
2019-03-30T20:33:46.317Z,11.41
2019-03-30T20:36:14.800Z,11.38
2019-03-30T20:38:43.296Z,11.39
2019-03-30T20:41:11.880Z,11.35
2019-03-30T20:43:40.348Z,11.23
2019-03-30T20:46:08.819Z,11.06
2019-03-30T20:48:37.324Z,11.02
2019-03-30T20:51:05.826Z,10.96
2019-03-30T20:53:34.315Z,10.91
2019-03-30T20:56:02.848Z,10.85
2019-03-30T20:58:31.324Z,10.89
2019-03-30T21:00:59.982Z,10.85
2019-03-30T21:03:28.487Z,10.91
2019-03-30T21:05:56.989Z,10.87
2019-03-30T21:08:25.477Z,10.82
2019-03-30T21:10:53.994Z,10.69
2019-03-30T21:13:22.481Z,10.63
2019-03-30T21:15:50.959Z,10.58
2019-03-30T21:18:19.526Z,10.60
2019-03-30T21:20:48.015Z,10.63
2019-03-30T21:23:16.507Z,10.60
2019-03-30T21:25:45.048Z,10.50
2019-03-30T21:28:13.643Z,10.48
2019-03-30T21:30:42.125Z,10.36
2019-03-30T21:33:10.620Z,10.26
2019-03-30T21:35:39.104Z,10.32
2019-03-30T21:38:07.618Z,10.32
2019-03-30T21:40:36.144Z,10.31
2019-03-30T21:43:04.795Z,10.30
2019-03-30T21:45:33.296Z,10.27
2019-03-30T21:48:02.486Z,10.27
2019-03-30T21:50:30.991Z,10.23
2019-03-30T21:52:59.486Z,10.19
2019-03-30T21:55:27.995Z,10.05
2019-03-30T21:57:56.515Z,10.03
2019-03-30T22:00:43.534Z,10.01
2019-03-30T22:03:12.116Z,10.00
2019-03-30T22:05:41.258Z,9.95
2019-03-30T22:08:10.226Z,9.83
2019-03-30T22:10:38.734Z,9.67
2019-03-30T22:13:07.299Z,9.57
2019-03-30T22:15:35.799Z,9.41
2019-03-30T22:18:04.475Z,9.38
2019-03-30T22:20:33.233Z,9.34
2019-03-30T22:23:01.732Z,9.15
2019-03-30T22:25:30.237Z,9.10
2019-03-30T22:27:58.820Z,9.14
2019-03-30T22:30:27.370Z,9.15
2019-03-30T22:32:55.895Z,9.06
2019-03-30T22:35:24.382Z,8.89
2019-03-30T22:37:52.892Z,8.81
2019-03-30T22:40:21.396Z,8.72
2019-03-30T22:42:49.879Z,8.72
2019-03-30T22:45:18.429Z,8.74
2019-03-30T22:47:46.936Z,8.82
2019-03-30T22:50:15.863Z,8.80
2019-03-30T22:52:44.353Z,8.75
2019-03-30T22:55:12.996Z,8.72
2019-03-30T22:57:41.553Z,8.74
2019-03-30T23:00:38.671Z,8.63
2019-03-30T23:03:00.160Z,8.61
2019-03-30T23:05:28.639Z,8.63
2019-03-30T23:07:57.138Z,8.60
2019-03-30T23:10:25.699Z,8.59
2019-03-30T23:12:54.188Z,8.59
2019-03-30T23:15:22.771Z,8.51
2019-03-30T23:17:51.262Z,8.45
2019-03-30T23:20:19.817Z,8.39
2019-03-30T23:22:48.309Z,8.35
2019-03-30T23:25:16.798Z,8.34
2019-03-30T23:27:45.295Z,8.29
2019-03-30T23:30:14.819Z,8.29
2019-03-30T23:32:43.276Z,8.25
2019-03-30T23:35:11.912Z,7.94
2019-03-30T23:37:40.397Z,7.76
2019-03-30T23:40:08.943Z,7.72
2019-03-30T23:42:37.442Z,7.75
2019-03-30T23:45:06.845Z,7.77
2019-03-30T23:47:35.343Z,7.76
2019-03-30T23:50:04.904Z,7.77
2019-03-30T23:52:33.360Z,7.63
2019-03-30T23:55:01.850Z,7.46
2019-03-30T23:57:30.344Z,7.49
2019-03-30T23:59:58.790Z,7.55
